createdAt,value
2017-05-11T00:00:07.805Z,75.51
2017-05-11T00:00:48.583Z,75.51
2017-05-11T00:01:29.345Z,75.6
2017-05-11T00:02:10.130Z,75.79
2017-05-11T00:02:50.852Z,75.79
2017-05-11T00:03:31.590Z,76.08
2017-05-11T00:04:12.408Z,75.89
2017-05-11T00:04:53.175Z,75.79
2017-05-11T00:05:33.836Z,75.95
2017-05-11T00:06:14.512Z,75.95
2017-05-11T00:06:55.222Z,75.85
2017-05-11T00:07:35.894Z,75.76
2017-05-11T00:08:16.562Z,75.67
2017-05-11T00:08:57.244Z,76.46
2017-05-11T00:09:37.939Z,76.27
2017-05-11T00:10:18.663Z,76.04
2017-05-11T00:10:59.436Z,76.32
2017-05-11T00:11:41.209Z,76.23
2017-05-11T00:12:21.931Z,76.52
2017-05-11T00:13:02.602Z,75.95
2017-05-11T00:13:43.286Z,76.52
2017-05-11T00:14:23.967Z,76.52
2017-05-11T00:15:04.721Z,76.61
2017-05-11T00:15:45.463Z,76.27
2017-05-11T00:16:26.115Z,76.37
2017-05-11T00:17:06.926Z,76.32
2017-05-11T00:17:47.629Z,76.04
2017-05-11T00:18:28.293Z,75.95
2017-05-11T00:19:08.986Z,76.32
2017-05-11T00:19:49.663Z,76.23
2017-05-11T00:20:30.346Z,76.23
2017-05-11T00:21:11.026Z,76.14
2017-05-11T00:21:51.716Z,76.32
2017-05-11T00:22:32.409Z,76.32
2017-05-11T00:23:13.200Z,76.32
2017-05-11T00:23:54.830Z,76.23
2017-05-11T00:24:35.478Z,76.23
2017-05-11T00:25:16.208Z,76.23
2017-05-11T00:25:56.937Z,76.14
2017-05-11T00:26:37.653Z,76.52
2017-05-11T00:27:18.447Z,76.14
2017-05-11T00:27:59.168Z,76.04
2017-05-11T00:28:40.128Z,76.14
2017-05-11T00:29:20.778Z,76.61
2017-05-11T00:30:02.443Z,76.42
2017-05-11T00:30:43.112Z,76.61
2017-05-11T00:31:23.739Z,76.32
2017-05-11T00:32:04.405Z,76.52
2017-05-11T00:32:45.050Z,76.23
2017-05-11T00:33:25.640Z,76.61
2017-05-11T00:34:06.266Z,76.32
2017-05-11T00:34:46.920Z,76.14
2017-05-11T00:35:27.493Z,76.42
2017-05-11T00:36:08.162Z,76.61
2017-05-11T00:36:48.750Z,76.61
2017-05-11T00:37:29.335Z,76.61
2017-05-11T00:38:10.005Z,76.61
2017-05-11T00:38:50.656Z,76.61
2017-05-11T00:39:31.296Z,76.8
2017-05-11T00:40:11.996Z,76.71
2017-05-11T00:40:52.611Z,76.61
2017-05-11T00:41:33.256Z,77.37
2017-05-11T00:42:13.938Z,77.09
2017-05-11T00:42:54.581Z,76.8
2017-05-11T00:43:35.271Z,77.28
2017-05-11T00:44:15.894Z,76.9
2017-05-11T00:44:56.628Z,76.71
2017-05-11T00:45:37.319Z,76.9
2017-05-11T00:46:17.945Z,77.09
2017-05-11T00:46:58.608Z,77.09
2017-05-11T00:47:39.239Z,77.09
2017-05-11T00:48:19.950Z,77.28
2017-05-11T00:49:00.648Z,77.18
2017-05-11T00:49:41.237Z,76.9
2017-05-11T00:50:21.963Z,76.99
2017-05-11T00:51:02.645Z,76.99
2017-05-11T00:51:43.351Z,76.99
2017-05-11T00:52:23.949Z,76.9
2017-05-11T00:53:04.589Z,77.09
2017-05-11T00:53:45.266Z,77.18
2017-05-11T00:54:26.990Z,77.09
2017-05-11T00:55:07.585Z,77.28
2017-05-11T00:55:48.202Z,77.18
2017-05-11T00:56:28.960Z,77.28
2017-05-11T00:57:09.592Z,77.37
2017-05-11T00:57:50.158Z,77.37
2017-05-11T00:58:30.820Z,77.56
2017-05-11T00:59:11.459Z,77.56
2017-05-11T00:59:52.116Z,77.47
2017-05-11T01:00:32.785Z,77.28
2017-05-11T01:01:14.489Z,77.28
2017-05-11T01:01:55.105Z,77.56
2017-05-11T01:02:35.738Z,77.75
2017-05-11T01:03:16.391Z,78.03
2017-05-11T01:03:58.091Z,77.84
2017-05-11T01:04:38.741Z,77.94
2017-05-11T01:05:19.423Z,77.84
2017-05-11T01:06:00.033Z,77.94
2017-05-11T01:06:40.703Z,77.84
2017-05-11T01:07:21.375Z,77.75
2017-05-11T01:08:01.992Z,77.75
2017-05-11T01:08:42.638Z,77.75
2017-05-11T01:09:23.349Z,77.84
2017-05-11T01:10:03.977Z,77.66
2017-05-11T01:10:44.578Z,77.66
2017-05-11T01:11:25.275Z,77.66
2017-05-11T01:12:05.914Z,77.75
2017-05-11T01:12:46.567Z,77.84
2017-05-11T01:13:27.193Z,77.56
2017-05-11T01:14:07.776Z,77.84
2017-05-11T01:14:48.439Z,77.94
2017-05-11T01:15:29.054Z,77.94
2017-05-11T01:16:09.664Z,77.75
2017-05-11T01:16:50.284Z,77.94
2017-05-11T01:17:30.917Z,77.66
2017-05-11T01:18:11.536Z,77.75
2017-05-11T01:18:52.161Z,78.13
2017-05-11T01:19:33.846Z,78.13
2017-05-11T01:20:14.469Z,78.51
2017-05-11T01:20:55.120Z,78.23
2017-05-11T01:21:35.797Z,78.32
2017-05-11T01:22:16.435Z,78.51
2017-05-11T01:22:57.086Z,78
2017-05-11T01:23:37.730Z,78.13
2017-05-11T01:24:18.423Z,78.09
2017-05-11T01:24:59.043Z,78.38
2017-05-11T01:25:39.697Z,78.47
2017-05-11T01:26:21.360Z,78.38
2017-05-11T01:27:02.011Z,78.47
2017-05-11T01:27:42.696Z,78.32
2017-05-11T01:28:23.351Z,78.28
2017-05-11T01:29:04.027Z,78.38
2017-05-11T01:29:44.613Z,78.47
2017-05-11T01:30:25.210Z,78.42
2017-05-11T01:31:05.846Z,78.32
2017-05-11T01:31:46.539Z,78.32
2017-05-11T01:32:27.127Z,78.32
2017-05-11T01:33:07.693Z,78.23
2017-05-11T01:33:48.387Z,78.23
2017-05-11T01:34:28.995Z,78.03
2017-05-11T01:35:09.628Z,78.56
2017-05-11T01:35:50.292Z,78.03
2017-05-11T01:36:31.003Z,78.23
2017-05-11T01:37:11.630Z,78.99
2017-05-11T01:37:52.315Z,78.56
2017-05-11T01:38:32.942Z,78.66
2017-05-11T01:39:13.591Z,78.28
2017-05-11T01:39:54.255Z,78.66
2017-05-11T01:40:34.924Z,78.66
2017-05-11T01:41:15.592Z,78.47
2017-05-11T01:41:56.850Z,78.47
2017-05-11T03:13:18.746Z,80.9
2017-05-11T03:13:59.329Z,80.43
2017-05-11T03:14:40.005Z,80.9
2017-05-11T03:15:21.683Z,80.9
2017-05-11T03:16:03.319Z,80.71
2017-05-11T03:16:44.001Z,81.09
2017-05-11T03:17:24.645Z,81.27
2017-05-11T03:18:05.308Z,81.09
2017-05-11T03:18:45.995Z,81.27
2017-05-11T03:19:26.627Z,81.09
2017-05-11T03:20:07.282Z,80.62
2017-05-11T03:20:47.993Z,80.62
2017-05-11T03:21:28.560Z,80.99
2017-05-11T03:22:09.210Z,80.8
2017-05-11T03:22:49.881Z,80.71
2017-05-11T03:23:30.627Z,80.9
2017-05-11T03:24:11.321Z,80.71
2017-05-11T03:24:51.924Z,80.8
2017-05-11T03:25:32.476Z,80.99
2017-05-11T03:26:13.128Z,80.99
2017-05-11T03:26:53.748Z,81.18
2017-05-11T03:27:34.444Z,80.62
2017-05-11T03:28:14.988Z,80.71
2017-05-11T03:28:55.642Z,81.09
2017-05-11T03:29:36.289Z,81.47
2017-05-11T03:30:16.870Z,81.09
2017-05-11T03:30:57.526Z,81.27
2017-05-11T03:31:38.183Z,81.37
2017-05-11T03:32:18.754Z,81.37
2017-05-11T03:33:00.431Z,81.47
2017-05-11T03:33:41.039Z,81.18
2017-05-11T03:34:21.567Z,81.09
2017-05-11T03:35:02.276Z,81.18
2017-05-11T03:35:42.941Z,81.18
2017-05-11T03:36:23.637Z,81.18
2017-05-11T03:37:04.178Z,81.18
2017-05-11T03:37:44.844Z,81.09
2017-05-11T03:38:25.494Z,81.18
2017-05-11T03:39:06.136Z,81.47
2017-05-11T03:39:46.695Z,81.27
2017-05-11T03:40:27.394Z,80.9
2017-05-11T03:41:08.050Z,81.09
2017-05-11T03:41:48.649Z,81.18
2017-05-11T03:42:29.295Z,81.56
2017-05-11T03:43:09.926Z,81.09
2017-05-11T03:43:50.645Z,81.18
2017-05-11T03:44:31.247Z,81.47
2017-05-11T03:45:11.912Z,81.66
2017-05-11T03:45:52.549Z,81.37
2017-05-11T03:46:33.196Z,81.56
2017-05-11T03:47:13.879Z,81.37
2017-05-11T03:47:54.512Z,81.37
2017-05-11T03:48:35.163Z,81.37
2017-05-11T03:49:15.816Z,81.37
2017-05-11T03:49:56.467Z,81.27
2017-05-11T03:50:37.122Z,81.66
2017-05-11T03:51:17.791Z,81.37
2017-05-11T03:51:58.447Z,81.66
2017-05-11T03:52:39.091Z,81.56
2017-05-11T03:53:19.734Z,81.75
2017-05-11T03:54:02.976Z,81.75
2017-05-11T03:54:43.682Z,81.75
2017-05-11T03:55:24.329Z,81.47
2017-05-11T03:56:05.005Z,81.47
2017-05-11T03:56:45.617Z,81.47
2017-05-11T03:57:26.300Z,81.56
2017-05-11T03:58:06.922Z,81.56
2017-05-11T03:58:47.626Z,81.37
2017-05-11T03:59:28.304Z,81.27
2017-05-11T04:00:08.886Z,81.37
2017-05-11T04:00:49.535Z,82.04
2017-05-11T04:01:30.180Z,82.04
2017-05-11T04:02:10.770Z,82.04
2017-05-11T04:02:51.464Z,82.04
2017-05-11T04:03:32.127Z,81.94
2017-05-11T04:04:12.679Z,82.04
2017-05-11T04:04:53.359Z,82.04
2017-05-11T04:05:34.015Z,82.04
2017-05-11T04:06:14.651Z,82.04
2017-05-11T04:06:55.302Z,81.27
2017-05-11T04:07:35.946Z,82.04
2017-05-11T04:08:16.625Z,81.75
2017-05-11T04:08:57.183Z,81.27
2017-05-11T04:09:38.812Z,81.18
2017-05-11T04:10:19.389Z,81.56
2017-05-11T04:11:00.017Z,81.56
2017-05-11T04:11:40.631Z,81.47
2017-05-11T04:12:22.249Z,81.18
2017-05-11T04:13:02.833Z,81.66
2017-05-11T04:13:43.468Z,81.47
2017-05-11T04:14:25.085Z,81.37
2017-05-11T04:15:05.744Z,81.75
2017-05-11T04:15:46.371Z,81.66
2017-05-11T04:16:26.985Z,81.37
2017-05-11T04:17:07.695Z,81.37
2017-05-11T04:17:48.348Z,81.47
2017-05-11T04:18:29.976Z,81.37
2017-05-11T04:19:10.643Z,81.37
2017-05-11T04:19:51.304Z,81.37
2017-05-11T04:20:31.970Z,81.18
2017-05-11T04:21:12.623Z,81.37
2017-05-11T04:55:02.290Z,80.94
2017-05-11T04:55:42.908Z,81.04
2017-05-11T04:56:23.541Z,80.94
2017-05-11T04:57:04.099Z,80.65
2017-05-11T04:57:44.787Z,80.41
2017-05-11T04:58:25.388Z,80.27
2017-05-11T04:59:06.070Z,80.03
2017-05-11T04:59:47.663Z,80.6
2017-05-11T05:00:30.316Z,80.32
2017-05-11T05:01:10.979Z,80.32
2017-05-11T05:01:51.548Z,80.51
2017-05-11T05:02:32.216Z,80.69
2017-05-11T05:03:12.903Z,80.13
2017-05-11T05:03:54.514Z,80.22
2017-05-11T05:04:35.164Z,80.13
2017-05-11T05:05:17.892Z,80.32
2017-05-11T05:05:58.521Z,80.22
2017-05-11T05:06:39.195Z,80.13
2017-05-11T05:07:19.846Z,79.74
2017-05-11T05:08:00.493Z,79.74
2017-05-11T05:08:41.064Z,79.84
2017-05-11T05:09:22.117Z,79.55
2017-05-11T05:10:03.769Z,79.84
2017-05-11T05:10:44.338Z,79.27
2017-05-11T05:11:25.011Z,79.46
2017-05-11T05:12:05.613Z,79.55
2017-05-11T05:12:46.204Z,79.65
2017-05-11T05:13:26.916Z,79.84
2017-05-11T05:14:07.582Z,79.65
2017-05-11T05:14:50.278Z,79.55
2017-05-11T05:15:30.944Z,78.89
2017-05-11T05:16:12.647Z,78.89
2017-05-11T05:16:53.267Z,79.17
2017-05-11T05:17:33.949Z,79.17
2017-05-11T05:18:14.567Z,79.31
2017-05-11T05:18:55.182Z,79.22
2017-05-11T05:19:35.826Z,79.12
2017-05-11T05:20:18.569Z,78.74
2017-05-11T05:20:59.319Z,79.03
2017-05-11T05:21:42.025Z,79.12
2017-05-11T05:22:22.653Z,79.12
2017-05-11T05:23:08.095Z,79.12
2017-05-11T05:23:48.756Z,78.45
2017-05-11T05:24:29.417Z,78.74
2017-05-11T05:25:14.838Z,78.83
2017-05-11T05:25:55.413Z,78.74
2017-05-11T05:26:36.068Z,78.74
2017-05-11T05:27:16.701Z,78.27
2017-05-11T05:27:58.379Z,78.36
2017-05-11T05:28:39.013Z,78.45
2017-05-11T05:29:19.783Z,78.27
2017-05-11T05:30:01.492Z,78.45
2017-05-11T05:30:43.201Z,78.08
2017-05-11T05:31:24.940Z,78.36
2017-05-11T05:32:05.604Z,78.08
2017-05-11T05:32:46.299Z,78.36
2017-05-11T05:33:28.984Z,78.08
2017-05-11T05:34:09.654Z,77.98
2017-05-11T05:34:51.342Z,78.08
2017-05-11T05:35:31.920Z,77.98
2017-05-11T05:36:12.615Z,77.92
2017-05-11T05:36:53.270Z,78.17
2017-05-11T05:37:35.041Z,77.6
2017-05-11T05:38:15.671Z,77.55
2017-05-11T05:38:58.399Z,77.6
2017-05-11T05:39:39.078Z,77.73
2017-05-11T05:40:20.756Z,77.73
2017-05-11T05:41:03.564Z,78.02
2017-05-11T05:41:44.178Z,77.45
2017-05-11T05:42:26.868Z,77.64
2017-05-11T05:43:13.205Z,77.55
2017-05-11T05:43:54.845Z,77.55
2017-05-11T05:44:37.592Z,77.55
2017-05-11T05:45:19.407Z,77.36
2017-05-11T05:46:02.151Z,77.45
2017-05-11T05:46:44.919Z,77.17
2017-05-11T05:47:25.711Z,76.88
2017-05-11T05:48:06.464Z,77.45
2017-05-11T05:48:47.215Z,76.97
2017-05-11T05:49:28.009Z,76.97
2017-05-11T05:50:08.832Z,77.07
2017-05-11T05:50:49.556Z,77.17
2017-05-11T05:51:31.310Z,76.69
2017-05-11T05:52:12.048Z,76.69
2017-05-11T05:52:53.786Z,76.78
2017-05-11T05:53:34.488Z,76.78
2017-05-11T05:54:16.207Z,76.78
2017-05-11T05:54:58.036Z,76.69
2017-05-11T05:55:38.624Z,76.78
2017-05-11T05:56:21.372Z,76.59
2017-05-11T05:57:02.095Z,76.5
2017-05-11T05:57:42.884Z,76.4
2017-05-11T05:58:23.585Z,76.31
2017-05-11T05:59:04.348Z,76.4
2017-05-11T05:59:45.135Z,76.69
2017-05-11T06:00:26.817Z,76.69
2017-05-11T06:01:07.464Z,76.59
2017-05-11T06:01:48.258Z,76.4
2017-05-11T06:02:29.961Z,76.4
2017-05-11T06:03:10.742Z,76.4
2017-05-11T06:03:51.457Z,76.54
2017-05-11T06:04:32.286Z,76.54
2017-05-11T06:05:18.801Z,76.54
2017-05-11T06:06:00.594Z,76.16
2017-05-11T06:06:41.300Z,76.73
2017-05-11T06:07:22.024Z,76.44
2017-05-11T06:08:02.730Z,76.54
2017-05-11T06:08:43.434Z,76.63
2017-05-11T06:09:25.245Z,76.25
2017-05-11T06:10:05.840Z,76.06
2017-05-11T06:10:46.550Z,76.44
2017-05-11T06:11:29.320Z,76.44
2017-05-11T06:12:09.981Z,75.78
2017-05-11T06:12:50.698Z,75.87
2017-05-11T06:13:31.407Z,75.78
2017-05-11T06:14:13.166Z,76.06
2017-05-11T06:14:59.863Z,75.68
2017-05-11T06:15:40.637Z,75.59
2017-05-11T06:16:22.315Z,75.49
2017-05-11T06:17:04.075Z,75.4
2017-05-11T06:17:45.747Z,75.96
2017-05-11T06:18:26.415Z,75.96
2017-05-11T06:19:07.130Z,75.59
2017-05-11T06:19:47.861Z,75.3
2017-05-11T06:20:28.529Z,75.4
2017-05-11T06:21:10.294Z,75.59
2017-05-11T06:21:51.049Z,75.49
2017-05-11T06:22:31.734Z,74.96
2017-05-11T06:23:12.379Z,75.05
2017-05-11T06:23:54.166Z,75.15
2017-05-11T06:24:34.854Z,75.05
2017-05-11T06:25:15.617Z,75.15
2017-05-11T06:25:58.368Z,75.43
2017-05-11T06:26:40.112Z,74.39
2017-05-11T06:27:20.847Z,74.58
2017-05-11T06:28:01.480Z,74.48
2017-05-11T06:28:42.160Z,74.77
2017-05-11T06:29:22.838Z,74.67
2017-05-11T06:30:03.662Z,74.29
2017-05-11T06:30:44.366Z,74.2
2017-05-11T06:31:25.168Z,74.39
2017-05-11T06:32:05.872Z,74.1
2017-05-11T06:32:46.608Z,74.1
2017-05-11T06:33:27.342Z,73.72
2017-05-11T06:34:09.120Z,74.04
2017-05-11T06:34:49.776Z,73.95
2017-05-11T06:35:35.364Z,74.04
2017-05-11T06:36:16.134Z,73.95
2017-05-11T06:36:56.886Z,73.95
2017-05-11T06:37:37.537Z,73.76
2017-05-11T06:38:19.191Z,73.76
2017-05-11T06:39:00.137Z,74.04
2017-05-11T06:39:41.803Z,73.95
2017-05-11T06:40:22.511Z,73.76
2017-05-11T06:41:03.166Z,73.85
2017-05-11T06:41:44.925Z,73.76
2017-05-11T06:42:25.683Z,73.95
2017-05-11T06:43:06.389Z,73.95
2017-05-11T06:43:47.126Z,74.04
2017-05-11T06:44:27.842Z,73.85
2017-05-11T06:45:08.545Z,73.66
2017-05-11T06:45:51.317Z,73.38
2017-05-11T06:46:32.078Z,73.47
2017-05-11T06:47:12.704Z,73.1
2017-05-11T06:47:53.357Z,73.38
2017-05-11T06:48:34.084Z,73.38
2017-05-11T06:49:14.810Z,73
2017-05-11T06:49:55.539Z,72.9
2017-05-11T06:50:36.136Z,72.65
2017-05-11T06:51:17.912Z,72.56
2017-05-11T06:51:59.597Z,72.65
2017-05-11T06:52:40.340Z,72.65
2017-05-11T06:53:20.975Z,72.65
2017-05-11T06:54:01.672Z,72.37
2017-05-11T06:54:42.343Z,72.46
2017-05-11T06:55:23.063Z,72.37
2017-05-11T06:56:03.741Z,72.37
2017-05-11T06:56:44.515Z,71.98
2017-05-11T06:57:26.267Z,71.8
2017-05-11T06:58:06.918Z,72.27
2017-05-11T06:58:48.676Z,71.89
2017-05-11T06:59:29.305Z,71.98
2017-05-11T07:00:11.018Z,72.08
2017-05-11T07:00:52.810Z,71.89
2017-05-11T07:01:33.388Z,71.7
2017-05-11T07:02:14.223Z,71.7
2017-05-11T07:02:55.949Z,71.61
2017-05-11T07:03:36.664Z,71.73
2017-05-11T07:04:17.302Z,71.73
2017-05-11T07:04:58.066Z,71.73
2017-05-11T07:05:40.720Z,71.17
2017-05-11T07:06:22.480Z,71.26
2017-05-11T07:07:05.184Z,71.45
2017-05-11T07:07:46.026Z,71.36
2017-05-11T07:08:26.858Z,71.55
2017-05-11T07:09:12.468Z,71.45
2017-05-11T07:09:53.242Z,70.69
2017-05-11T07:10:33.901Z,71.17
2017-05-11T07:11:14.564Z,70.78
2017-05-11T07:11:55.262Z,70.78
2017-05-11T07:12:35.994Z,70.5
2017-05-11T07:13:16.593Z,70.82
2017-05-11T07:13:57.381Z,71.11
2017-05-11T07:14:39.164Z,71.11
2017-05-11T07:15:19.969Z,70.72
2017-05-11T07:16:00.636Z,70.82
2017-05-11T07:16:41.344Z,70.72
2017-05-11T07:17:22.076Z,70.34
2017-05-11T07:18:03.775Z,70.34
2017-05-11T07:18:44.436Z,70.25
2017-05-11T07:19:25.183Z,70.34
2017-05-11T07:20:05.927Z,70.44
2017-05-11T07:20:46.630Z,69.96
2017-05-11T07:21:27.311Z,69.96
2017-05-11T07:22:08.007Z,70.06
2017-05-11T07:22:48.684Z,70.44
2017-05-11T07:23:29.372Z,70.06
2017-05-11T07:24:10.004Z,69.87
2017-05-11T07:24:50.740Z,70.15
2017-05-11T07:25:31.385Z,69.58
2017-05-11T07:26:12.059Z,69.52
2017-05-11T07:26:52.755Z,69.52
2017-05-11T07:27:34.487Z,69.81
2017-05-11T07:28:15.136Z,69.62
2017-05-11T07:28:55.817Z,69.33
2017-05-11T07:29:36.611Z,68.95
2017-05-11T07:30:17.385Z,69.04
2017-05-11T07:30:59.120Z,69.23
2017-05-11T07:31:39.826Z,68.47
2017-05-11T07:32:20.485Z,68.57
2017-05-11T07:33:01.119Z,68.76
2017-05-11T07:33:42.886Z,68.66
2017-05-11T07:34:24.602Z,68.6
2017-05-11T07:35:05.249Z,68.32
2017-05-11T07:35:46.170Z,68.41
2017-05-11T07:36:26.813Z,68.51
2017-05-11T07:37:07.576Z,68.51
2017-05-11T07:37:48.242Z,68.51
2017-05-11T07:38:30.071Z,68.12
2017-05-11T07:39:11.761Z,68.03
2017-05-11T07:39:52.483Z,68.32
2017-05-11T07:40:34.229Z,67.83
2017-05-11T07:41:14.879Z,68.22
2017-05-11T07:41:55.573Z,68.03
2017-05-11T07:42:36.269Z,68.22
2017-05-11T07:43:16.905Z,68.12
2017-05-11T07:43:57.534Z,68.32
2017-05-11T07:44:38.280Z,68.12
2017-05-11T07:45:18.951Z,68.22
2017-05-11T07:45:59.652Z,68.32
2017-05-11T07:46:40.283Z,67.93
2017-05-11T07:47:22.054Z,67.93
2017-05-11T07:48:02.654Z,67.74
2017-05-11T07:48:47.893Z,67.55
2017-05-11T07:49:28.474Z,68.22
2017-05-11T07:50:09.171Z,67.74
2017-05-11T07:50:49.809Z,67.74
2017-05-11T07:51:31.469Z,67.55
2017-05-11T07:52:12.267Z,67.93
2017-05-11T07:52:53.076Z,67.36
2017-05-11T07:53:33.740Z,67.55
2017-05-11T07:54:14.549Z,67.46
2017-05-11T07:54:55.203Z,67.36
2017-05-11T07:55:35.906Z,67.65
2017-05-11T07:56:16.649Z,67.83
2017-05-11T07:56:57.331Z,67.36
2017-05-11T07:57:38.141Z,67.46
2017-05-11T07:58:19.155Z,67.68
2017-05-11T07:58:59.964Z,67.58
2017-05-11T07:59:40.740Z,67.3
2017-05-11T08:00:22.409Z,67.21
2017-05-11T08:01:04.128Z,67.21
2017-05-11T08:01:49.746Z,67.11
2017-05-11T08:02:30.408Z,66.92
2017-05-11T08:03:11.047Z,67.01
2017-05-11T08:03:51.714Z,66.53
2017-05-11T08:04:32.360Z,66.63
2017-05-11T08:05:13.129Z,66.63
2017-05-11T08:05:53.932Z,66.63
2017-05-11T08:06:36.501Z,66.63
2017-05-11T08:07:21.764Z,66.63
2017-05-11T08:08:02.532Z,66.63
2017-05-11T08:08:43.307Z,65.96
2017-05-11T08:09:23.972Z,66.06
2017-05-11T08:10:04.638Z,65.96
2017-05-11T08:10:45.404Z,65.87
2017-05-11T08:11:27.067Z,65.87
2017-05-11T08:12:07.793Z,65.67
2017-05-11T08:12:49.452Z,65.8
2017-05-11T08:13:30.188Z,65.77
2017-05-11T08:14:10.863Z,65.8
2017-05-11T08:14:57.382Z,65.8
2017-05-11T08:15:38.176Z,65.71
2017-05-11T08:16:18.836Z,65.9
2017-05-11T08:16:59.514Z,65.42
2017-05-11T08:17:54.775Z,65.33
2017-05-11T08:18:45.923Z,65.61
2017-05-11T08:19:39.327Z,65.61
2017-05-11T08:20:25.969Z,65.42
2017-05-11T08:21:06.670Z,65.52
2017-05-11T08:21:47.380Z,65.52
2017-05-11T08:22:28.067Z,65.61
2017-05-11T08:23:08.755Z,65.42
2017-05-11T08:23:49.477Z,65.33
2017-05-11T08:24:30.164Z,65.23
2017-05-11T08:25:11.886Z,65.52
2017-05-11T08:25:54.603Z,64.94
2017-05-11T08:26:36.251Z,64.85
2017-05-11T08:27:17.016Z,65.33
2017-05-11T08:27:57.791Z,65.07
2017-05-11T08:28:38.555Z,65.14
2017-05-11T08:29:19.204Z,64.98
2017-05-11T08:30:02.098Z,64.78
2017-05-11T08:30:42.769Z,64.59
2017-05-11T08:31:25.486Z,64.31
2017-05-11T08:32:06.232Z,64.5
2017-05-11T08:32:46.885Z,64.59
2017-05-11T08:33:29.632Z,64.4
2017-05-11T08:34:10.543Z,64.59
2017-05-11T08:34:52.319Z,64.5
2017-05-11T08:35:32.950Z,64.5
2017-05-11T08:36:13.705Z,64.5
2017-05-11T08:36:55.511Z,64.5
2017-05-11T08:37:36.227Z,64.12
2017-05-11T08:38:17.865Z,64.34
2017-05-11T08:39:03.208Z,64.43
2017-05-11T08:39:43.931Z,64.05
2017-05-11T08:40:31.222Z,64.05
2017-05-11T08:41:11.919Z,64.15
2017-05-11T08:41:52.567Z,63.86
2017-05-11T08:42:33.173Z,63.86
2017-05-11T08:43:13.880Z,63.48
2017-05-11T08:44:01.178Z,63.39
2017-05-11T08:44:41.922Z,63.39
2017-05-11T08:45:22.550Z,63.19
2017-05-11T08:46:03.389Z,63
2017-05-11T08:46:45.075Z,63.29
2017-05-11T08:47:25.829Z,63.1
2017-05-11T08:48:06.614Z,63.19
2017-05-11T08:48:47.337Z,63.19
2017-05-11T08:49:28.096Z,63.19
2017-05-11T08:50:08.759Z,62.81
2017-05-11T08:50:49.470Z,62.62
2017-05-11T08:51:30.590Z,62.71
2017-05-11T08:52:12.113Z,62.74
2017-05-11T08:52:52.849Z,62.62
2017-05-11T08:53:33.667Z,62.55
2017-05-11T08:54:14.287Z,62.46
2017-05-11T08:54:55.099Z,62.55
2017-05-11T08:55:35.918Z,62.08
2017-05-11T08:56:18.690Z,61.98
2017-05-11T08:56:59.418Z,62.27
2017-05-11T08:57:40.162Z,61.79
2017-05-11T08:58:23.093Z,61.69
2017-05-11T08:59:03.854Z,61.79
2017-05-11T08:59:44.574Z,61.44
2017-05-11T09:00:25.290Z,61.25
2017-05-11T09:01:06.073Z,61.34
2017-05-11T09:01:47.793Z,61.34
2017-05-11T09:02:28.573Z,61.34
2017-05-11T09:03:09.294Z,61.34
2017-05-11T09:03:52.318Z,61.15
2017-05-11T09:04:35.555Z,61.25
2017-05-11T09:05:16.258Z,61.15
2017-05-11T09:05:56.942Z,60.89
2017-05-11T09:06:37.681Z,60.77
2017-05-11T09:07:18.404Z,60.41
2017-05-11T09:07:59.104Z,60.61
2017-05-11T09:08:39.754Z,60.51
2017-05-11T09:09:20.390Z,60.7
2017-05-11T09:10:01.161Z,60.89
2017-05-11T09:10:41.908Z,60.8
2017-05-11T09:11:22.600Z,60.8
2017-05-11T09:12:03.223Z,60.7
2017-05-11T09:12:43.924Z,60.61
2017-05-11T09:13:24.685Z,60.7
2017-05-11T09:14:06.426Z,60.13
2017-05-11T09:14:49.166Z,60.51
2017-05-11T09:15:29.865Z,60.32
2017-05-11T09:16:10.617Z,60.61
2017-05-11T09:16:52.380Z,60.03
2017-05-11T09:17:33.142Z,60.03
2017-05-11T09:18:13.851Z,59.97
2017-05-11T09:18:54.505Z,59.97
2017-05-11T09:19:35.268Z,59.97
2017-05-11T09:20:15.997Z,59.97
2017-05-11T09:20:56.750Z,59.97
2017-05-11T09:21:38.456Z,59.77
2017-05-11T09:22:19.168Z,59.58
2017-05-11T09:22:59.823Z,59.11
2017-05-11T09:23:40.712Z,59.01
2017-05-11T09:24:23.516Z,58.81
2017-05-11T09:25:05.218Z,59.01
2017-05-11T09:25:45.855Z,58.62
2017-05-11T09:26:28.501Z,58.24
2017-05-11T09:27:09.146Z,57.86
2017-05-11T09:27:50.856Z,57.57
2017-05-11T09:28:31.585Z,57.76
2017-05-11T09:29:12.368Z,57.67
2017-05-11T09:29:53.043Z,57.67
2017-05-11T09:30:33.681Z,57.6
2017-05-11T09:31:14.358Z,57.5
2017-05-11T09:31:55.260Z,57.5
2017-05-11T09:32:35.952Z,57.6
2017-05-11T09:33:16.656Z,57.12
2017-05-11T09:36:29.255Z,56.83
2017-05-11T09:37:09.903Z,56.93
2017-05-11T09:37:51.647Z,56.76
2017-05-11T09:38:32.329Z,56.48
2017-05-11T09:39:14.041Z,56.48
2017-05-11T09:39:54.654Z,55.9
2017-05-11T09:40:35.366Z,56.19
2017-05-11T09:41:16.059Z,55.8
2017-05-11T09:41:56.749Z,55.52
2017-05-11T09:42:37.410Z,55.62
2017-05-11T09:43:22.925Z,55.42
2017-05-11T09:44:04.647Z,55.45
2017-05-11T09:44:45.295Z,55.35
2017-05-11T09:45:25.936Z,55.26
2017-05-11T09:46:06.623Z,55.07
2017-05-11T09:46:48.400Z,54.88
2017-05-11T09:47:29.122Z,54.88
2017-05-11T09:48:10.923Z,54.21
2017-05-11T09:48:53.676Z,54.39
2017-05-11T09:49:34.456Z,54.39
2017-05-11T09:50:15.174Z,54.39
2017-05-11T09:50:55.782Z,54.01
2017-05-11T09:51:41.556Z,54.3
2017-05-11T09:52:23.354Z,54.39
2017-05-11T09:53:04.177Z,54.58
2017-05-11T09:53:44.848Z,54.88
2017-05-11T09:54:27.557Z,54.49
2017-05-11T09:55:09.308Z,54.21
2017-05-11T09:55:50.075Z,54.39
2017-05-11T09:56:32.896Z,54.71
2017-05-11T09:57:14.726Z,53.94
2017-05-11T09:57:55.421Z,53.85
2017-05-11T09:58:36.133Z,53.85
2017-05-11T09:59:16.845Z,53.66
2017-05-11T09:59:57.570Z,53.75
2017-05-11T10:00:38.277Z,53.68
2017-05-11T10:01:18.949Z,53.39
2017-05-11T10:01:59.631Z,53.87
2017-05-11T10:02:40.289Z,53.68
2017-05-11T10:03:25.679Z,53.39
2017-05-11T10:04:06.272Z,52.91
2017-05-11T10:04:47.910Z,53.01
2017-05-11T10:05:28.653Z,52.55
2017-05-11T10:06:09.340Z,52.55
2017-05-11T10:06:50.008Z,52.55
2017-05-11T10:07:30.664Z,52.46
2017-05-11T10:08:11.290Z,52.17
2017-05-11T10:08:52.079Z,52.08
2017-05-11T10:09:33.747Z,52.08
2017-05-11T10:10:14.382Z,51.79
2017-05-11T10:11:00.999Z,52.08
2017-05-11T10:11:42.725Z,52.46
2017-05-11T10:12:23.444Z,52.65
2017-05-11T10:13:05.086Z,51.98
2017-05-11T10:13:47.823Z,51.69
2017-05-11T10:14:28.474Z,51.23
2017-05-11T10:15:09.135Z,51.11
2017-05-11T10:15:50.836Z,50.76
2017-05-11T10:16:31.462Z,51.04
2017-05-11T10:17:12.141Z,50.66
2017-05-11T10:17:52.825Z,50.37
2017-05-11T10:18:33.505Z,50.37
2017-05-11T10:19:14.171Z,50.46
2017-05-11T10:19:54.835Z,50.18
2017-05-11T10:20:35.545Z,50.37
2017-05-11T10:21:16.220Z,50.27
2017-05-11T10:21:56.851Z,50.46
2017-05-11T10:22:37.475Z,50.08
2017-05-11T10:23:18.153Z,50.56
2017-05-11T10:23:58.833Z,50.27
2017-05-11T10:24:39.483Z,50.46
2017-05-11T10:25:20.129Z,50.46
2017-05-11T10:26:00.815Z,49.69
2017-05-11T10:26:42.456Z,49.89
2017-05-11T10:27:23.110Z,49.72
2017-05-11T10:28:03.760Z,49.82
2017-05-11T10:28:44.418Z,49.72
2017-05-11T10:29:24.987Z,49.43
2017-05-11T10:30:07.636Z,50.01
2017-05-11T10:30:49.195Z,49.72
2017-05-11T10:31:29.786Z,49.43
2017-05-11T10:32:10.350Z,49.43
2017-05-11T10:32:52.107Z,49.72
2017-05-11T10:33:32.763Z,49.24
2017-05-11T10:34:13.426Z,48.85
2017-05-11T10:34:54.013Z,49.15
2017-05-11T10:35:34.664Z,49.15
2017-05-11T10:36:15.246Z,48.76
2017-05-11T10:36:55.932Z,48.95
2017-05-11T10:37:36.485Z,48.88
2017-05-11T10:38:18.104Z,48.79
2017-05-11T10:38:58.783Z,48.97
2017-05-11T10:39:39.481Z,48.79
2017-05-11T10:40:20.061Z,48.3
2017-05-11T10:41:00.721Z,48.97
2017-05-11T10:41:41.371Z,48.79
2017-05-11T10:42:22.045Z,48.49
2017-05-11T10:43:03.685Z,48.21
2017-05-11T10:43:46.285Z,48.02
2017-05-11T10:44:26.930Z,48.02
2017-05-11T10:45:07.555Z,47.82
2017-05-11T10:45:48.146Z,47.72
2017-05-11T10:46:28.796Z,47.53
2017-05-11T10:47:09.430Z,47.34
2017-05-11T10:47:50.046Z,47.34
2017-05-11T10:48:30.661Z,47.05
2017-05-11T10:49:12.316Z,47.15
2017-05-11T10:49:52.902Z,47.53
2017-05-11T10:50:33.514Z,47.34
2017-05-11T10:51:14.234Z,47.15
2017-05-11T10:51:55.831Z,47.15
2017-05-11T10:52:36.408Z,47.34
2017-05-11T10:53:17.083Z,47.24
2017-05-11T10:53:57.753Z,47.53
2017-05-11T10:54:38.351Z,47.15
2017-05-11T10:55:19.003Z,47.15
2017-05-11T10:55:59.644Z,47.15
2017-05-11T10:56:40.301Z,46.69